createdAt,value
2024-05-09T00:00:40.190Z,17.30
2024-05-09T00:03:10.056Z,17.30
2024-05-09T00:05:40.721Z,17.40
2024-05-09T00:08:09.757Z,17.40
2024-05-09T00:10:39.175Z,17.30
2024-05-09T00:13:08.138Z,17.30
2024-05-09T00:15:36.510Z,17.20
2024-05-09T00:18:05.857Z,17.30
2024-05-09T00:20:38.711Z,17.30
2024-05-09T00:23:11.629Z,17.30
2024-05-09T00:25:39.922Z,17.40
2024-05-09T00:28:07.008Z,17.10
2024-05-09T00:30:36.287Z,17.20
2024-05-09T00:33:08.974Z,17.40
2024-05-09T00:35:38.057Z,17.20
2024-05-09T00:38:05.356Z,17.10
2024-05-09T00:40:40.533Z,17.10
2024-05-09T00:43:14.578Z,17.00
2024-05-09T00:45:43.912Z,17.10
2024-05-09T00:48:17.347Z,17.30
2024-05-09T00:50:47.362Z,17.00
2024-05-09T00:53:17.484Z,17.20
2024-05-09T00:55:45.961Z,17.00
2024-05-09T00:58:18.032Z,16.90
2024-05-09T01:00:45.192Z,16.90
2024-05-09T01:03:13.922Z,16.90
2024-05-09T01:05:43.020Z,16.80
2024-05-09T01:08:11.705Z,16.80
2024-05-09T01:10:40.809Z,16.70
2024-05-09T01:13:09.808Z,16.70
2024-05-09T01:15:36.682Z,16.60
2024-05-09T01:18:13.904Z,16.50
2024-05-09T01:20:44.403Z,16.50
2024-05-09T01:23:15.551Z,16.50
2024-05-09T01:25:45.947Z,16.40
2024-05-09T01:28:13.987Z,16.50
2024-05-09T01:30:41.010Z,16.40
2024-05-09T01:33:10.185Z,16.40
2024-05-09T01:35:40.891Z,16.30
2024-05-09T01:38:09.731Z,16.30
2024-05-09T01:40:39.394Z,16.30
2024-05-09T01:43:11.268Z,16.40
2024-05-09T01:45:40.249Z,16.40
2024-05-09T01:48:09.286Z,16.30
2024-05-09T01:50:40.432Z,16.10
2024-05-09T01:53:12.627Z,16.10
2024-05-09T01:55:40.100Z,16.10
2024-05-09T01:58:07.425Z,16.10
2024-05-09T02:00:40.058Z,16.00
2024-05-09T02:03:15.227Z,16.10
2024-05-09T02:05:45.948Z,15.80
2024-05-09T02:08:15.864Z,16.00
2024-05-09T02:10:44.730Z,15.90
2024-05-09T02:13:12.900Z,15.80
2024-05-09T02:15:40.134Z,16.10
2024-05-09T02:18:09.018Z,16.10
2024-05-09T02:20:39.856Z,15.80
2024-05-09T02:23:08.636Z,15.70
2024-05-09T02:25:35.786Z,15.70
2024-05-09T02:28:03.370Z,15.50
2024-05-09T02:30:38.641Z,15.70
2024-05-09T02:33:13.218Z,15.70
2024-05-09T02:35:42.381Z,15.60
2024-05-09T02:38:10.607Z,15.70
2024-05-09T02:40:39.349Z,15.60
2024-05-09T02:43:10.081Z,15.50
2024-05-09T02:45:39.066Z,15.40
2024-05-09T02:48:07.340Z,15.40
2024-05-09T02:50:38.861Z,15.40
2024-05-09T02:53:09.107Z,15.30
2024-05-09T02:55:37.679Z,15.30
2024-05-09T02:58:06.789Z,15.10
2024-05-09T03:00:38.694Z,15.10
2024-05-09T03:03:10.325Z,15.30
2024-05-09T03:05:40.164Z,15.00
2024-05-09T03:08:07.658Z,15.00
2024-05-09T03:10:36.907Z,15.00
2024-05-09T03:13:14.852Z,14.90
2024-05-09T03:15:43.767Z,14.90
2024-05-09T03:18:11.808Z,14.90
2024-05-09T03:20:39.798Z,14.90
2024-05-09T03:23:09.144Z,15.00
2024-05-09T03:25:37.547Z,14.80
2024-05-09T03:28:04.959Z,14.70
2024-05-09T03:30:39.877Z,14.70
2024-05-09T03:33:20.536Z,14.70
2024-05-09T03:35:49.096Z,14.60
2024-05-09T03:38:16.824Z,14.60
2024-05-09T03:40:49.828Z,14.60
2024-05-09T03:43:19.019Z,14.50
2024-05-09T03:45:49.420Z,14.50
2024-05-09T03:48:16.990Z,14.40
2024-05-09T03:50:44.451Z,14.50
2024-05-09T03:53:13.735Z,14.40
2024-05-09T03:55:41.089Z,14.40
2024-05-09T03:58:08.862Z,14.40
2024-05-09T04:00:39.135Z,14.40
2024-05-09T04:03:10.248Z,14.30
2024-05-09T04:05:44.395Z,14.30
2024-05-09T04:08:11.962Z,14.30
2024-05-09T04:10:39.130Z,14.20
2024-05-09T04:13:06.178Z,14.20
2024-05-09T04:15:33.135Z,14.30
2024-05-09T04:18:01.301Z,14.20
2024-05-09T04:20:36.717Z,14.20
2024-05-09T04:23:10.554Z,14.20
2024-05-09T04:25:37.960Z,14.20
2024-05-09T04:28:05.646Z,14.20
2024-05-09T04:30:38.614Z,14.20
2024-05-09T04:33:11.740Z,14.20
2024-05-09T04:35:44.567Z,14.60
2024-05-09T04:38:14.218Z,14.20
2024-05-09T04:40:41.877Z,14.20
2024-05-09T04:43:16.096Z,14.20
2024-05-09T04:45:43.298Z,14.20
2024-05-09T04:48:10.727Z,14.20
2024-05-09T04:50:39.398Z,14.30
2024-05-09T04:53:11.287Z,14.30
2024-05-09T04:55:39.891Z,14.20
2024-05-09T04:58:11.477Z,14.30
2024-05-09T05:00:40.688Z,14.30
2024-05-09T05:03:13.757Z,14.20
2024-05-09T05:05:44.588Z,14.30
2024-05-09T05:08:18.063Z,14.30
2024-05-09T05:10:47.324Z,14.30
2024-05-09T05:13:23.732Z,14.30
2024-05-09T05:15:58.221Z,14.30
2024-05-09T05:18:27.948Z,14.40
2024-05-09T05:20:56.667Z,14.40
2024-05-09T05:23:24.776Z,14.40
2024-05-09T05:25:53.203Z,14.40
2024-05-09T05:28:21.716Z,14.50
2024-05-09T05:30:48.752Z,14.50
2024-05-09T05:33:19.007Z,14.50
2024-05-09T05:35:46.509Z,14.70
2024-05-09T05:38:13.531Z,14.60
2024-05-09T05:40:41.219Z,14.60
2024-05-09T05:43:16.270Z,14.70
2024-05-09T05:45:43.133Z,14.70
2024-05-09T05:48:10.474Z,14.90
2024-05-09T05:50:38.541Z,14.80
2024-05-09T05:53:08.282Z,14.80
2024-05-09T05:55:40.830Z,14.80
2024-05-09T05:58:14.799Z,15.30
2024-05-09T06:00:42.745Z,15.00
2024-05-09T06:03:12.489Z,15.10
2024-05-09T06:05:40.866Z,15.10
2024-05-09T06:08:08.558Z,15.30
2024-05-09T06:10:39.349Z,15.20
2024-05-09T06:13:13.397Z,15.40
2024-05-09T06:15:41.686Z,15.30
2024-05-09T06:18:11.009Z,15.40
2024-05-09T06:20:40.449Z,15.60
2024-05-09T06:23:09.208Z,15.40
2024-05-09T06:25:36.898Z,15.50
2024-05-09T06:28:04.594Z,15.60
2024-05-09T06:30:40.218Z,15.70
2024-05-09T06:33:11.981Z,15.80
2024-05-09T06:35:41.119Z,15.80
2024-05-09T06:38:11.653Z,15.90
2024-05-09T06:40:42.374Z,16.00
2024-05-09T06:43:17.393Z,16.10
2024-05-09T06:45:48.059Z,16.20
2024-05-09T06:48:19.779Z,16.40
2024-05-09T06:50:47.361Z,16.40
2024-05-09T06:53:15.840Z,16.60
2024-05-09T06:55:43.122Z,16.70
2024-05-09T06:58:10.112Z,16.90
2024-05-09T07:00:39.970Z,16.80
2024-05-09T07:03:17.913Z,17.00
2024-05-09T07:05:48.070Z,16.80
2024-05-09T07:08:16.683Z,17.00
2024-05-09T07:10:43.951Z,17.10
2024-05-09T07:13:13.056Z,17.20
2024-05-09T07:15:41.644Z,17.20
2024-05-09T07:18:17.178Z,17.20
2024-05-09T07:20:46.143Z,17.30
2024-05-09T07:23:13.570Z,17.40
2024-05-09T07:25:41.858Z,17.40
2024-05-09T07:28:17.945Z,17.50
2024-05-09T07:30:45.384Z,17.60
2024-05-09T07:33:23.263Z,17.60
2024-05-09T07:35:51.634Z,17.70
2024-05-09T07:38:18.818Z,17.80
2024-05-09T07:40:46.091Z,17.80
2024-05-09T07:43:14.168Z,18.10
2024-05-09T07:45:50.672Z,18.00
2024-05-09T07:52:38.207Z,17.90
2024-05-09T07:53:47.760Z,18.00
2024-05-09T07:56:19.456Z,18.10
2024-05-09T07:58:50.442Z,18.10
2024-05-09T08:01:17.653Z,18.20
2024-05-09T08:03:45.291Z,18.20
2024-05-09T08:06:12.487Z,18.20
2024-05-09T08:08:39.454Z,18.50
2024-05-09T08:11:06.847Z,18.30
2024-05-09T08:13:33.847Z,18.30
2024-05-09T08:16:01.262Z,18.30
2024-05-09T08:18:28.388Z,18.70
2024-05-09T08:20:55.457Z,18.60
2024-05-09T08:23:23.706Z,18.70
2024-05-09T08:25:51.003Z,18.90
2024-05-09T08:28:17.992Z,18.90
2024-05-09T08:30:45.279Z,18.90
2024-05-09T08:33:12.538Z,19.00
2024-05-09T08:35:39.466Z,19.20
2024-05-09T08:38:07.530Z,18.80
2024-05-09T08:40:37.507Z,19.10
2024-05-09T08:43:11.540Z,19.10
2024-05-09T08:45:43.599Z,19.20
2024-05-09T08:48:14.927Z,19.30
2024-05-09T08:50:44.526Z,19.10
2024-05-09T08:53:12.442Z,19.20
2024-05-09T08:55:43.244Z,19.10
2024-05-09T08:58:17.863Z,19.20
2024-05-09T09:00:46.738Z,19.00
2024-05-09T09:03:18.098Z,19.30
2024-05-09T09:06:10.783Z,19.00
2024-05-09T09:08:40.631Z,19.10
2024-05-09T09:11:07.567Z,19.00
2024-05-09T09:13:34.555Z,19.20
2024-05-09T09:16:02.847Z,19.00
2024-05-09T09:18:30.469Z,19.20
2024-05-09T09:20:57.682Z,19.20
2024-05-09T09:23:28.271Z,19.40
2024-05-09T09:26:01.745Z,19.30
2024-05-09T09:28:29.666Z,19.50
2024-05-09T09:31:04.168Z,19.20
2024-05-09T09:33:31.844Z,19.60
2024-05-09T09:35:59.239Z,19.60
2024-05-09T09:38:31.096Z,19.70
2024-05-09T09:41:01.330Z,19.70
2024-05-09T09:43:29.127Z,19.90
2024-05-09T09:46:00.258Z,19.90
2024-05-09T09:48:30.611Z,20.20
2024-05-09T09:50:58.454Z,20.40
2024-05-09T09:53:25.815Z,20.30
2024-05-09T09:55:54.391Z,20.10
2024-05-09T09:58:22.995Z,20.30
2024-05-09T10:00:50.202Z,20.00
2024-05-09T10:03:17.196Z,20.50
2024-05-09T10:05:46.996Z,20.20
2024-05-09T10:08:17.639Z,20.20
2024-05-09T10:10:48.211Z,20.60
2024-05-09T10:13:15.689Z,20.50
2024-05-09T10:15:48.163Z,20.50
2024-05-09T10:18:15.712Z,20.50
2024-05-09T10:20:46.803Z,20.90
2024-05-09T10:23:34.586Z,20.60
2024-05-09T10:26:04.792Z,20.80
2024-05-09T10:28:37.873Z,20.60
2024-05-09T10:31:16.476Z,20.60
2024-05-09T10:33:50.333Z,20.60
2024-05-09T10:36:26.185Z,20.80
2024-05-09T10:38:54.711Z,20.60
2024-05-09T10:41:23.271Z,20.70
2024-05-09T10:43:51.933Z,20.50
2024-05-09T10:46:19.381Z,20.70
2024-05-09T10:48:48.001Z,21.10
2024-05-09T10:51:18.102Z,21.20
2024-05-09T10:53:47.967Z,20.90
2024-05-09T10:56:15.543Z,21.10
2024-05-09T10:58:42.496Z,21.10
2024-05-09T11:01:10.845Z,21.00
2024-05-09T11:03:39.273Z,21.30
2024-05-09T11:06:08.107Z,21.20
2024-05-09T11:08:36.333Z,21.40
2024-05-09T11:11:07.442Z,21.50
2024-05-09T11:13:37.827Z,21.60
2024-05-09T11:16:18.980Z,21.70
2024-05-09T11:18:57.307Z,21.90
2024-05-09T11:21:25.273Z,22.00
2024-05-09T11:23:52.522Z,22.20
2024-05-09T11:26:21.875Z,22.20
2024-05-09T11:28:50.450Z,22.40
2024-05-09T11:31:17.946Z,22.60
2024-05-09T11:33:45.738Z,22.60
2024-05-09T11:36:13.148Z,22.70
2024-05-09T11:38:40.792Z,23.00
2024-05-09T11:41:07.794Z,23.10
2024-05-09T11:43:34.765Z,23.30
2024-05-09T11:46:03.723Z,23.30
2024-05-09T11:48:31.687Z,23.40
2024-05-09T11:50:58.856Z,23.40
2024-05-09T11:53:25.934Z,23.60
2024-05-09T11:55:53.255Z,23.40
2024-05-09T11:58:21.369Z,23.40
2024-05-09T12:00:48.603Z,23.60
2024-05-09T12:03:15.944Z,23.50
2024-05-09T12:05:43.288Z,23.50
2024-05-09T12:08:12.825Z,23.70
2024-05-09T12:10:40.098Z,23.60
2024-05-09T12:13:07.696Z,23.60
2024-05-09T12:15:42.007Z,23.60
2024-05-09T12:18:09.358Z,23.70
2024-05-09T12:20:39.123Z,23.80
2024-05-09T12:23:09.764Z,23.80
2024-05-09T12:25:39.485Z,24.00
2024-05-09T12:28:10.298Z,24.20
2024-05-09T12:30:40.189Z,24.30
2024-05-09T12:33:11.581Z,24.40
2024-05-09T12:35:43.330Z,24.70
2024-05-09T12:38:13.116Z,24.70
2024-05-09T12:40:40.101Z,24.80
2024-05-09T12:43:08.858Z,24.80
2024-05-09T12:45:37.639Z,24.40
2024-05-09T12:48:08.301Z,24.70
2024-05-09T12:50:35.999Z,24.80
2024-05-09T12:53:04.466Z,25.00
2024-05-09T12:55:40.999Z,25.10
2024-05-09T12:58:18.761Z,25.20
2024-05-09T13:00:46.570Z,25.40
2024-05-09T13:03:14.501Z,25.50
2024-05-09T13:05:44.601Z,25.60
2024-05-09T13:08:13.155Z,25.70
2024-05-09T13:10:40.493Z,25.90
2024-05-09T13:13:09.530Z,25.90
2024-05-09T13:15:39.590Z,26.00
2024-05-09T13:18:07.463Z,26.00
2024-05-09T13:20:36.846Z,26.00
2024-05-09T13:23:07.674Z,26.10
2024-05-09T13:25:36.430Z,26.10
2024-05-09T13:28:04.915Z,26.10
2024-05-09T13:30:39.296Z,26.20
2024-05-09T13:33:13.659Z,26.40
2024-05-09T13:35:48.620Z,26.40
2024-05-09T13:38:18.959Z,26.50
2024-05-09T13:40:46.373Z,26.60
2024-05-09T13:43:13.672Z,26.70
2024-05-09T13:45:43.655Z,26.80
2024-05-09T13:48:10.947Z,26.70
2024-05-09T13:50:39.052Z,26.80
2024-05-09T13:53:07.579Z,26.80
2024-05-09T13:55:38.914Z,26.70
2024-05-09T13:58:06.980Z,26.60
2024-05-09T14:00:44.173Z,26.50
2024-05-09T14:03:18.294Z,26.50
2024-05-09T14:05:46.941Z,26.40
2024-05-09T14:08:15.407Z,26.50
2024-05-09T14:10:45.072Z,26.50
2024-05-09T14:13:13.191Z,26.50
2024-05-09T14:15:41.201Z,26.60
2024-05-09T14:18:12.426Z,26.80
2024-05-09T14:20:41.700Z,26.90
2024-05-09T14:23:08.823Z,27.10
2024-05-09T14:25:39.035Z,27.10
2024-05-09T14:28:09.576Z,27.10
2024-05-09T14:30:38.234Z,27.00
2024-05-09T14:33:07.449Z,27.00
2024-05-09T14:35:35.680Z,26.90
2024-05-09T14:38:03.376Z,27.00
2024-05-09T14:40:40.512Z,27.00
2024-05-09T14:43:12.846Z,27.00
2024-05-09T14:45:40.753Z,27.00
2024-05-09T14:48:08.857Z,27.10
2024-05-09T14:50:39.078Z,27.20
2024-05-09T14:53:09.167Z,27.40
2024-05-09T14:55:37.818Z,27.40
2024-05-09T14:58:10.190Z,27.50
2024-05-09T15:00:46.552Z,27.50
2024-05-09T15:03:18.553Z,27.50
2024-05-09T15:05:46.908Z,27.70
2024-05-09T15:08:13.921Z,27.80
2024-05-09T15:10:40.982Z,27.70
2024-05-09T15:13:09.822Z,27.80
2024-05-09T15:15:38.444Z,27.80
2024-05-09T15:18:06.368Z,27.80
2024-05-09T15:20:36.498Z,27.90
2024-05-09T15:23:06.871Z,28.00
2024-05-09T15:25:36.176Z,27.90
2024-05-09T15:28:07.245Z,27.80
2024-05-09T15:30:35.056Z,27.70
2024-05-09T15:33:07.195Z,27.80
2024-05-09T15:35:35.481Z,27.70
2024-05-09T15:38:03.751Z,27.70
2024-05-09T15:40:38.525Z,27.70
2024-05-09T15:43:10.059Z,27.80
2024-05-09T15:45:38.422Z,27.80
2024-05-09T15:48:06.585Z,27.80
2024-05-09T15:50:38.876Z,27.80
2024-05-09T15:53:10.008Z,27.70
2024-05-09T15:55:37.955Z,27.60
2024-05-09T15:58:06.430Z,27.50
2024-05-09T16:00:39.126Z,27.50
2024-05-09T16:03:10.646Z,27.50
2024-05-09T16:05:38.503Z,27.50
2024-05-09T16:08:07.448Z,27.50
2024-05-09T16:10:35.401Z,27.50
2024-05-09T16:13:03.728Z,27.50
2024-05-09T16:15:31.348Z,27.50
2024-05-09T16:17:58.895Z,27.40
2024-05-09T16:20:34.757Z,27.40
2024-05-09T16:23:07.854Z,27.20
2024-05-09T16:25:34.965Z,27.20
2024-05-09T16:28:05.770Z,27.00
2024-05-09T16:30:36.129Z,26.90
2024-05-09T16:33:05.345Z,26.90
2024-05-09T16:35:34.302Z,26.80
2024-05-09T16:38:08.581Z,26.70
2024-05-09T16:40:39.808Z,26.80
2024-05-09T16:43:13.203Z,26.70
2024-05-09T16:45:46.412Z,26.60
2024-05-09T16:48:14.632Z,26.60
2024-05-09T16:50:41.874Z,26.70
2024-05-09T16:53:09.086Z,26.50
2024-05-09T16:55:36.408Z,26.40
2024-05-09T16:58:04.452Z,26.30
2024-05-09T17:00:39.961Z,26.20
2024-05-09T17:03:13.757Z,26.20
2024-05-09T17:05:42.676Z,26.00
2024-05-09T17:08:10.109Z,25.80
2024-05-09T17:10:37.234Z,25.80
2024-05-09T17:13:06.715Z,25.60
2024-05-09T17:15:36.251Z,25.50
2024-05-09T17:18:04.563Z,25.50
2024-05-09T17:20:35.215Z,25.40
2024-05-09T17:23:13.121Z,25.30
2024-05-09T17:25:41.035Z,25.20
2024-05-09T17:28:09.446Z,25.10
2024-05-09T17:30:38.906Z,25.00
2024-05-09T17:33:09.509Z,25.10
2024-05-09T17:35:37.807Z,25.00
2024-05-09T17:38:06.269Z,24.90
2024-05-09T17:40:36.214Z,24.90
2024-05-09T17:43:07.058Z,24.70
2024-05-09T17:45:37.569Z,24.60
2024-05-09T17:48:05.373Z,24.70
2024-05-09T17:50:35.954Z,24.60
2024-05-09T17:53:05.967Z,24.70
2024-05-09T17:55:33.336Z,24.50
2024-05-09T17:58:00.800Z,24.50
2024-05-09T18:00:37.032Z,24.40
2024-05-09T18:03:08.685Z,24.30
2024-05-09T18:05:37.068Z,24.40
2024-05-09T18:08:06.188Z,24.20
2024-05-09T18:10:37.272Z,24.00
2024-05-09T18:13:11.439Z,24.00
2024-05-09T18:15:39.270Z,23.90
2024-05-09T18:18:07.681Z,23.80
2024-05-09T18:20:42.663Z,23.80
2024-05-09T18:23:15.987Z,23.70
2024-05-09T18:25:44.781Z,23.70
2024-05-09T18:28:11.660Z,23.60
2024-05-09T18:30:40.087Z,23.30
2024-05-09T18:33:09.746Z,23.60
2024-05-09T18:35:37.066Z,23.40
2024-05-09T18:38:05.378Z,23.30
2024-05-09T18:40:36.110Z,23.20
2024-05-09T18:43:07.502Z,23.20
2024-05-09T18:45:39.157Z,23.00
2024-05-09T18:48:08.619Z,22.90
2024-05-09T18:50:39.618Z,22.80
2024-05-09T18:53:11.026Z,23.00
2024-05-09T18:55:38.874Z,22.90
2024-05-09T18:58:06.199Z,22.60
2024-05-09T19:00:36.958Z,22.50
2024-05-09T19:03:12.446Z,22.40
2024-05-09T19:05:43.408Z,22.30
2024-05-09T19:08:11.637Z,22.30
2024-05-09T19:10:39.447Z,22.40
2024-05-09T19:13:11.554Z,22.10
2024-05-09T19:15:41.020Z,22.00
2024-05-09T19:18:09.484Z,21.90
2024-05-09T19:20:37.311Z,22.00
2024-05-09T19:23:06.649Z,21.90
2024-05-09T19:25:34.494Z,21.70
2024-05-09T19:28:01.768Z,21.40
2024-05-09T19:30:37.576Z,21.60
2024-05-09T19:33:09.294Z,21.50
2024-05-09T19:35:36.895Z,21.60
2024-05-09T19:38:05.008Z,21.30
2024-05-09T19:40:33.970Z,21.30
2024-05-09T19:43:03.149Z,21.40
2024-05-09T19:45:32.299Z,21.40
2024-05-09T19:47:59.589Z,21.10
2024-05-09T19:50:32.910Z,21.10
2024-05-09T19:53:08.298Z,21.10
2024-05-09T19:55:35.447Z,21.00
2024-05-09T19:58:05.035Z,20.90
2024-05-09T20:00:40.373Z,20.70
2024-05-09T20:03:10.736Z,20.70
2024-05-09T20:05:38.556Z,20.70
2024-05-09T20:08:06.713Z,20.70
2024-05-09T20:10:35.650Z,20.60
2024-05-09T20:13:06.289Z,20.70
2024-05-09T20:15:35.695Z,20.50
2024-05-09T20:18:04.021Z,20.70
2024-05-09T20:20:37.701Z,20.40
2024-05-09T20:23:09.194Z,20.30
2024-05-09T20:25:36.835Z,20.50
2024-05-09T20:28:04.753Z,20.20
2024-05-09T20:30:34.482Z,20.20
2024-05-09T20:33:04.555Z,20.10
2024-05-09T20:35:33.216Z,19.90
2024-05-09T20:38:01.016Z,20.10
2024-05-09T20:40:32.858Z,19.90
2024-05-09T20:43:03.651Z,20.20
2024-05-09T20:45:30.681Z,19.80
2024-05-09T20:47:57.984Z,19.70
2024-05-09T20:50:35.597Z,19.50
2024-05-09T20:53:12.374Z,19.60
2024-05-09T20:55:40.503Z,19.50
2024-05-09T20:58:08.533Z,19.40
2024-05-09T21:00:40.213Z,19.60
2024-05-09T21:03:11.499Z,19.40
2024-05-09T21:05:39.194Z,19.20
2024-05-09T21:08:07.169Z,19.30
2024-05-09T21:10:36.362Z,19.10
2024-05-09T21:13:04.379Z,19.10
2024-05-09T21:15:32.111Z,19.00
2024-05-09T21:17:59.784Z,19.10
2024-05-09T21:22:57.810Z,18.80
2024-05-09T21:25:24.781Z,18.80
2024-05-09T21:27:52.190Z,18.70
2024-05-09T21:30:28.465Z,18.60
2024-05-09T21:33:05.503Z,19.00
2024-05-09T21:35:32.579Z,18.60
2024-05-09T21:37:59.474Z,18.70
2024-05-09T21:40:33.460Z,18.50
2024-05-09T21:43:02.591Z,18.90
2024-05-09T21:45:29.678Z,18.50
2024-05-09T21:47:56.769Z,18.30
2024-05-09T21:50:31.768Z,18.50
2024-05-09T21:53:05.914Z,18.50
2024-05-09T21:55:32.935Z,18.30
2024-05-09T21:57:59.850Z,18.40
2024-05-09T22:00:34.613Z,18.10
2024-05-09T22:03:05.612Z,18.20
2024-05-09T22:05:32.958Z,17.90
2024-05-09T22:08:00.370Z,17.90
2024-05-09T22:10:33.403Z,18.00
2024-05-09T22:13:02.930Z,17.80
2024-05-09T22:15:29.884Z,17.70
2024-05-09T22:17:57.628Z,17.70
2024-05-09T22:20:34.099Z,17.60
2024-05-09T22:23:04.954Z,17.80
2024-05-09T22:25:32.580Z,17.60
2024-05-09T22:28:01.890Z,17.60
2024-05-09T22:30:36.812Z,17.50
2024-05-09T22:33:11.044Z,17.50
2024-05-09T22:35:40.068Z,17.50
2024-05-09T22:38:07.150Z,17.80
2024-05-09T22:40:44.796Z,17.40
2024-05-09T22:43:24.216Z,17.40
2024-05-09T22:45:54.968Z,17.30
2024-05-09T22:48:23.658Z,17.50
2024-05-09T22:50:51.524Z,17.60
2024-05-09T22:53:18.563Z,17.30
2024-05-09T22:55:45.454Z,17.40
2024-05-09T22:58:12.433Z,17.20
2024-05-09T23:00:39.874Z,17.20
2024-05-09T23:03:06.930Z,17.10
2024-05-09T23:05:34.051Z,17.00
2024-05-09T23:08:02.695Z,17.10
2024-05-09T23:10:35.717Z,17.20
2024-05-09T23:13:06.318Z,16.90
2024-05-09T23:15:33.625Z,16.90
2024-05-09T23:18:00.793Z,16.70
2024-05-09T23:20:36.220Z,16.80
2024-05-09T23:23:07.620Z,17.10
2024-05-09T23:25:34.998Z,17.00
2024-05-09T23:28:02.145Z,17.20
2024-05-09T23:30:36.975Z,17.20
2024-05-09T23:33:07.470Z,16.90
2024-05-09T23:35:34.738Z,17.00
2024-05-09T23:38:01.702Z,17.10
2024-05-09T23:40:37.693Z,17.30
2024-05-09T23:43:09.239Z,17.00
2024-05-09T23:45:36.662Z,16.90
2024-05-09T23:48:04.359Z,17.20
2024-05-09T23:50:36.055Z,16.80
2024-05-09T23:53:07.238Z,16.80
2024-05-09T23:55:35.391Z,16.70
2024-05-09T23:58:02.341Z,16.70
